Kinniconick, Kentucky
Current Conditions -  °F | °C
As of 9:55 AM on Sunday 21 Dec 2014 (Local Time) from KFGX Reporting Station
Overcast Overcast  
Wind Chill: 22°   Ceiling: 1400
Heat Index: 31°   Visibility: 10mi
Dew Point: 26°   Wind: 9mph
Humidity: 84%   Direction: 110°ESE
Pressure: 30.32"   Gusts: NA
Location:  38.4929°N, 83.3898°W
Report Text: KFGX 211455Z AUTO 11008KT 10SM OVC014 M01/M03 A3032 RMK AO2 T10081032
Loading
Personal Weather Stations






























Interactive Weather Map New forecast layout! Learn more

10-Day Weather Forecast

Advertisements
Track Severe Weather on mobile